createdAt,value
2018-12-24T00:00:21.436Z,100744.78
2018-12-24T00:01:25.284Z,100751.63
2018-12-24T00:02:28.986Z,100753.55
2018-12-24T00:03:32.601Z,100756.85
2018-12-24T00:04:36.317Z,100759.34
2018-12-24T00:05:39.967Z,100751.12
2018-12-24T00:06:43.654Z,100758.53
2018-12-24T00:07:47.362Z,100750.31
2018-12-24T00:08:51.006Z,100763.70
2018-12-24T00:09:54.927Z,100758.83
2018-12-24T00:10:58.717Z,100764.56
2018-12-24T00:12:06.901Z,100753.35
2018-12-24T00:13:08.010Z,100763.25
2018-12-24T00:14:11.787Z,100768.17
2018-12-24T00:15:15.542Z,100777.76
2018-12-24T00:16:19.117Z,100781.61
2018-12-24T00:17:22.989Z,100788.46
2018-12-24T00:18:26.652Z,100783.54
2018-12-24T00:19:30.284Z,100786.28
2018-12-24T00:20:33.911Z,100777.55
2018-12-24T00:21:37.593Z,100789.58
2018-12-24T00:22:41.395Z,100787.95
2018-12-24T00:23:45.016Z,100790.94
2018-12-24T00:24:48.703Z,100799.47
2018-12-24T00:25:52.342Z,100803.02
2018-12-24T00:26:56.099Z,100806.87
2018-12-24T00:27:59.868Z,100808.24
2018-12-24T00:29:03.486Z,100807.48
2018-12-24T00:30:07.054Z,100812.91
2018-12-24T00:31:10.659Z,100802.81
2018-12-24T00:32:14.335Z,100805.80
2018-12-24T00:33:18.017Z,100806.11
2018-12-24T00:34:21.710Z,100815.14
2018-12-24T00:35:25.347Z,100820.61
2018-12-24T00:36:28.948Z,100826.36
2018-12-24T00:37:32.635Z,100836.75
2018-12-24T00:38:36.343Z,100834.59
2018-12-24T00:39:40.031Z,100836.52
2018-12-24T00:40:43.712Z,100842.55
2018-12-24T00:41:47.366Z,100836.25
2018-12-24T00:42:51.123Z,100834.89
2018-12-24T00:43:54.810Z,100840.92
2018-12-24T00:44:58.465Z,100845.03
2018-12-24T00:46:02.065Z,100843.41
2018-12-24T00:47:05.747Z,100855.42
2018-12-24T00:48:09.709Z,100848.07
2018-12-24T00:49:13.365Z,100860.39
2018-12-24T00:50:17.015Z,100859.84
2018-12-24T00:51:20.705Z,100851.16
2018-12-24T00:52:24.439Z,100860.14
2018-12-24T00:53:28.059Z,100860.14
2018-12-24T00:54:31.768Z,100865.06
2018-12-24T00:55:35.399Z,100862.06
2018-12-24T00:56:38.992Z,100864.55
2018-12-24T00:57:42.657Z,100873.58
2018-12-24T00:58:46.468Z,100874.13
2018-12-24T00:59:50.074Z,100877.98
2018-12-24T01:00:53.699Z,100879.91
2018-12-24T01:01:57.435Z,100884.58
2018-12-24T01:03:01.049Z,100888.94
2018-12-24T01:04:04.659Z,100887.31
2018-12-24T01:05:08.485Z,100884.02
2018-12-24T01:06:12.090Z,100890.87
2018-12-24T01:07:15.714Z,100893.91
2018-12-24T01:08:19.447Z,100903.49
2018-12-24T01:09:23.111Z,100905.67
2018-12-24T01:10:26.803Z,100909.53
2018-12-24T01:11:30.399Z,100918.30
2018-12-24T01:12:34.000Z,100916.67
2018-12-24T01:13:37.687Z,100912.83
2018-12-24T01:14:41.367Z,100915.30
2018-12-24T01:15:44.981Z,100935.59
2018-12-24T01:16:48.651Z,100944.06
2018-12-24T01:17:52.242Z,100946.55
2018-12-24T01:18:55.943Z,100953.65
2018-12-24T01:19:59.561Z,100954.20
2018-12-24T01:21:03.190Z,100957.50
2018-12-24T01:22:06.863Z,100964.34
2018-12-24T01:23:10.555Z,100974.19
2018-12-24T01:24:14.216Z,100970.94
2018-12-24T01:25:17.890Z,100977.78
2018-12-24T01:26:21.535Z,100981.33
2018-12-24T01:27:25.273Z,100975.59
2018-12-24T01:28:28.881Z,100979.15
2018-12-24T01:29:32.484Z,100981.08
2018-12-24T01:30:36.083Z,100984.34
2018-12-24T01:31:39.776Z,100993.40
2018-12-24T01:32:43.369Z,100996.95
2018-12-24T01:33:47.065Z,100999.11
2018-12-24T01:34:50.682Z,101000.48
2018-12-24T01:35:54.278Z,101001.59
2018-12-24T01:36:57.969Z,101007.06
2018-12-24T01:38:01.570Z,101007.06
2018-12-24T01:39:06.414Z,101008.99
2018-12-24T01:40:10.024Z,101009.80
2018-12-24T01:41:13.620Z,101016.66
2018-12-24T01:42:17.340Z,101018.02
2018-12-24T01:43:20.946Z,101016.95
2018-12-24T01:44:24.541Z,101016.39
2018-12-24T01:45:28.150Z,101023.23
2018-12-24T01:46:31.792Z,101023.23
2018-12-24T01:47:35.406Z,101027.09
2018-12-24T01:48:39.016Z,101038.05
2018-12-24T01:49:42.616Z,101034.48
2018-12-24T01:50:46.233Z,101037.78
2018-12-24T01:51:49.846Z,101039.16
2018-12-24T01:52:53.470Z,101050.11
2018-12-24T01:53:57.137Z,101050.92
2018-12-24T01:55:00.779Z,101047.11
2018-12-24T01:56:04.439Z,101051.22
2018-12-24T01:57:08.170Z,101052.33
2018-12-24T01:58:11.893Z,101053.70
2018-12-24T01:59:16.879Z,101058.06
2018-12-24T02:00:20.705Z,101062.98
2018-12-24T02:01:24.374Z,101061.09
2018-12-24T02:02:27.976Z,101067.38
2018-12-24T02:03:31.687Z,101064.39
2018-12-24T02:04:35.355Z,101066.86
2018-12-24T02:05:38.944Z,101065.75
2018-12-24T02:06:42.547Z,101069.61
2018-12-24T02:07:46.245Z,101067.42
2018-12-24T02:08:49.997Z,101071.78
2018-12-24T02:09:53.628Z,101073.97
2018-12-24T02:10:57.241Z,101074.82
2018-12-24T02:12:00.831Z,101076.19
2018-12-24T02:13:04.443Z,101080.30
2018-12-24T02:14:08.090Z,101074.82
2018-12-24T02:15:11.736Z,101081.41
2018-12-24T02:16:15.396Z,101090.44
2018-12-24T02:17:19.215Z,101086.33
2018-12-24T02:18:22.822Z,101090.44
2018-12-24T02:19:26.521Z,101093.47
2018-12-24T02:20:30.211Z,101094.28
2018-12-24T02:21:33.844Z,101094.28
2018-12-24T02:22:37.543Z,101101.68
2018-12-24T02:23:41.219Z,101103.31
2018-12-24T02:24:44.845Z,101100.31
2018-12-24T02:25:48.446Z,101105.53
2018-12-24T02:26:52.113Z,101104.71
2018-12-24T02:27:55.718Z,101108.27
2018-12-24T02:28:59.346Z,101106.90
2018-12-24T02:30:03.051Z,101112.11
2018-12-24T02:31:09.588Z,101112.67
2018-12-24T02:32:13.212Z,101114.85
2018-12-24T02:33:16.866Z,101114.30
2018-12-24T02:34:20.482Z,101118.66
2018-12-24T02:35:24.270Z,101120.33
2018-12-24T02:36:27.943Z,101118.14
2018-12-24T02:37:31.605Z,101120.03
2018-12-24T02:38:35.273Z,101123.06
2018-12-24T02:39:39.019Z,101126.88
2018-12-24T02:40:42.747Z,101126.36
2018-12-24T02:41:46.343Z,101126.36
2018-12-24T02:42:52.563Z,101131.83
2018-12-24T02:43:55.366Z,101130.73
2018-12-24T02:44:58.959Z,101133.75
2018-12-24T02:46:02.773Z,101137.31
2018-12-24T02:47:06.579Z,101140.60
2018-12-24T02:48:10.241Z,101138.42
2018-12-24T02:49:13.833Z,101142.52
2018-12-24T02:50:17.428Z,101136.79
2018-12-24T02:51:21.081Z,101142.27
2018-12-24T02:52:24.711Z,101143.08
2018-12-24T02:53:28.312Z,101144.45
2018-12-24T02:54:31.923Z,101146.63
2018-12-24T02:55:35.521Z,101144.74
2018-12-24T02:56:39.175Z,101150.77
2018-12-24T02:57:42.767Z,101151.32
2018-12-24T02:58:46.353Z,101155.69
2018-12-24T02:59:49.980Z,101163.09
2018-12-24T03:00:53.604Z,101161.16
2018-12-24T03:01:57.244Z,101165.53
2018-12-24T03:03:00.864Z,101169.13
2018-12-24T03:04:04.503Z,101165.56
2018-12-24T03:05:08.139Z,101171.86
2018-12-24T03:06:11.937Z,101168.59
2018-12-24T03:07:15.565Z,101180.07
2018-12-24T03:08:19.213Z,101179.78
2018-12-24T03:09:22.899Z,101179.81
2018-12-24T03:10:26.557Z,101178.99
2018-12-24T03:11:30.244Z,101182.55
2018-12-24T03:12:33.975Z,101185.28
2018-12-24T03:13:37.546Z,101189.13
2018-12-24T03:14:41.240Z,101185.02
2018-12-24T03:15:44.828Z,101193.50
2018-12-24T03:16:48.413Z,101193.23
2018-12-24T03:17:52.054Z,101197.89
2018-12-24T03:18:55.710Z,101202.55
2018-12-24T03:19:59.339Z,101203.66
2018-12-24T03:21:03.011Z,101205.84
2018-12-24T03:22:06.595Z,101203.66
2018-12-24T03:23:10.243Z,101206.39
2018-12-24T03:24:13.892Z,101209.95
2018-12-24T03:25:17.620Z,101217.34
2018-12-24T03:26:21.307Z,101216.53
2018-12-24T03:27:24.884Z,101214.88
2018-12-24T03:28:28.538Z,101214.91
2018-12-24T03:29:32.153Z,101215.16
2018-12-24T03:30:35.733Z,101217.91
2018-12-24T03:31:39.379Z,101215.72
2018-12-24T03:32:42.987Z,101218.19
2018-12-24T03:33:46.711Z,101218.19
2018-12-24T03:34:50.320Z,101217.38
2018-12-24T03:35:53.988Z,101217.92
2018-12-24T03:36:57.722Z,101225.59
2018-12-24T03:38:01.376Z,101223.41
2018-12-24T03:39:06.833Z,101227.77
2018-12-24T03:40:10.603Z,101228.03
2018-12-24T03:41:14.271Z,101229.93
2018-12-24T03:42:17.898Z,101228.27
2018-12-24T03:43:21.516Z,101231.83
2018-12-24T03:44:25.211Z,101236.45
2018-12-24T03:45:28.914Z,101233.41
2018-12-24T03:46:32.659Z,101237.22
2018-12-24T03:47:36.254Z,101243.48
2018-12-24T03:48:39.857Z,101237.72
2018-12-24T03:49:43.459Z,101239.30
2018-12-24T03:50:47.044Z,101245.05
2018-12-24T03:51:50.660Z,101253.44
2018-12-24T03:52:54.268Z,101251.98
2018-12-24T03:53:57.888Z,101251.06
2018-12-24T03:55:01.533Z,101256.45
2018-12-24T03:56:05.133Z,101265.36
2018-12-24T03:57:08.882Z,101252.06
2018-12-24T03:58:12.472Z,101255.21
2018-12-24T03:59:16.069Z,101250.73
2018-12-24T04:00:19.779Z,101251.13
2018-12-24T04:01:23.366Z,101254.25
2018-12-24T04:02:26.982Z,101248.85
2018-12-24T04:03:30.694Z,101255.33
2018-12-24T04:04:34.352Z,101257.42
2018-12-24T04:05:38.046Z,101261.14
2018-12-24T04:06:41.667Z,101262.34
2018-12-24T04:07:45.454Z,101267.52
2018-12-24T04:08:49.170Z,101265.45
2018-12-24T04:09:52.765Z,101270.28
2018-12-24T04:10:56.538Z,101276.95
2018-12-24T04:12:00.146Z,101278.70
2018-12-24T04:13:03.805Z,101279.73
2018-12-24T04:14:07.441Z,101285.46
2018-12-24T04:15:11.114Z,101290.55
2018-12-24T04:16:14.750Z,101292.39
2018-12-24T04:17:18.359Z,101295.94
2018-12-24T04:18:22.138Z,101293.09
2018-12-24T04:19:25.816Z,101289.09
2018-12-24T04:20:29.437Z,101286.30
2018-12-24T04:21:33.133Z,101293.27
2018-12-24T04:22:36.731Z,101293.19
2018-12-24T04:23:40.449Z,101295.52
2018-12-24T04:24:44.107Z,101298.41
2018-12-24T04:25:47.799Z,101304.20
2018-12-24T04:26:51.431Z,101306.17
2018-12-24T04:27:55.035Z,101301.17
2018-12-24T04:28:58.734Z,101310.47
2018-12-24T04:30:02.328Z,101308.20
2018-12-24T04:31:05.936Z,101309.72
2018-12-24T04:32:09.648Z,101316.26
2018-12-24T04:33:13.273Z,101318.95
2018-12-24T04:34:16.899Z,101308.20
2018-12-24T04:35:20.693Z,101321.22
2018-12-24T04:36:24.360Z,101322.66
2018-12-24T04:37:28.059Z,101322.09
2018-12-24T04:38:31.665Z,101317.63
2018-12-24T04:39:35.270Z,101324.79
2018-12-24T04:40:38.938Z,101323.22
2018-12-24T04:41:42.543Z,101333.61
2018-12-24T04:42:46.277Z,101331.64
2018-12-24T04:43:49.904Z,101333.86
2018-12-24T04:44:53.572Z,101337.97
2018-12-24T04:45:57.163Z,101331.33
2018-12-24T04:47:00.835Z,101335.41
2018-12-24T04:48:04.548Z,101340.85
2018-12-24T04:49:08.191Z,101347.36
2018-12-24T04:50:11.862Z,101350.68
2018-12-24T04:51:15.470Z,101349.67
2018-12-24T04:52:19.139Z,101354.30
2018-12-24T04:53:22.852Z,101354.92
2018-12-24T04:54:26.528Z,101351.86
2018-12-24T04:55:30.130Z,101360.13
2018-12-24T04:56:33.815Z,101361.55
2018-12-24T04:57:37.435Z,101363.19
2018-12-24T04:58:41.147Z,101358.55
2018-12-24T04:59:44.765Z,101365.69
2018-12-24T05:00:48.432Z,101370.57
2018-12-24T05:01:52.031Z,101370.57
2018-12-24T05:02:55.711Z,101372.95
2018-12-24T05:03:59.407Z,101375.40
2018-12-24T05:05:03.004Z,101380.15
2018-12-24T05:06:06.722Z,101383.47
2018-12-24T05:07:10.345Z,101390.34
2018-12-24T05:08:14.082Z,101388.52
2018-12-24T05:09:17.781Z,101394.91
2018-12-24T05:10:21.456Z,101396.84
2018-12-24T05:11:25.120Z,101401.30
2018-12-24T05:12:28.714Z,101403.09
2018-12-24T05:13:40.650Z,101402.59
2018-12-24T05:14:37.701Z,101411.77
2018-12-24T05:15:41.293Z,101409.66
2018-12-24T05:16:44.893Z,101412.77
2018-12-24T05:17:48.483Z,101422.41
2018-12-24T05:18:52.104Z,101427.42
2018-12-24T05:19:55.754Z,101422.84
2018-12-24T05:20:59.336Z,101424.42
2018-12-24T05:22:03.021Z,101433.49
2018-12-24T05:23:06.615Z,101436.23
2018-12-24T05:24:10.273Z,101434.86
2018-12-24T05:25:13.904Z,101443.66
2018-12-24T05:26:17.509Z,101447.16
2018-12-24T05:27:21.208Z,101450.37
2018-12-24T05:28:24.819Z,101458.57
2018-12-24T05:29:28.397Z,101458.50
2018-12-24T05:30:33.541Z,101466.96
2018-12-24T05:31:37.123Z,101464.72
2018-12-24T05:32:40.782Z,101463.03
2018-12-24T05:33:44.399Z,101468.48
2018-12-24T05:34:48.050Z,101475.55
2018-12-24T05:35:51.707Z,101467.49
2018-12-24T05:36:55.378Z,101472.69
2018-12-24T05:37:58.963Z,101477.38
2018-12-24T05:39:02.606Z,101479.83
2018-12-24T05:40:06.329Z,101483.95
2018-12-24T05:41:09.926Z,101484.57
2018-12-24T05:42:13.552Z,101488.09
2018-12-24T05:43:17.135Z,101487.07
2018-12-24T05:44:20.749Z,101485.23
2018-12-24T05:45:24.375Z,101489.37
2018-12-24T05:46:28.023Z,101488.86
2018-12-24T05:47:31.715Z,101486.73
2018-12-24T05:48:35.379Z,101490.36
2018-12-24T05:49:39.110Z,101496.42
2018-12-24T05:50:42.814Z,101495.05
2018-12-24T05:51:46.432Z,101498.92
2018-12-24T05:52:50.158Z,101503.61
2018-12-24T05:53:53.939Z,101502.95
2018-12-24T05:54:57.523Z,101511.13
2018-12-24T05:56:01.183Z,101514.45
2018-12-24T05:57:04.819Z,101514.09
2018-12-24T05:58:08.528Z,101511.08
2018-12-24T05:59:12.149Z,101517.36
2018-12-24T06:00:15.800Z,101515.36
2018-12-24T06:01:19.438Z,101518.37
2018-12-24T06:02:23.085Z,101519.75
2018-12-24T06:03:26.748Z,101528.06
2018-12-24T06:04:30.370Z,101535.25
2018-12-24T06:05:33.991Z,101529.53
2018-12-24T06:06:37.625Z,101535.05
2018-12-24T06:07:41.325Z,101538.10
2018-12-24T06:08:44.911Z,101537.91
2018-12-24T06:09:48.534Z,101544.54
2018-12-24T06:10:52.146Z,101545.41
2018-12-24T06:11:56.231Z,101552.03
2018-12-24T06:12:59.953Z,101555.04
2018-12-24T06:14:03.563Z,101555.86
2018-12-24T06:15:07.226Z,101562.78
2018-12-24T06:16:10.941Z,101562.73
2018-12-24T06:17:14.662Z,101570.99
2018-12-24T06:18:18.380Z,101563.55
2018-12-24T06:19:22.024Z,101573.95
2018-12-24T06:20:25.612Z,101576.64
2018-12-24T06:21:29.291Z,101579.91
2018-12-24T06:22:32.878Z,101576.29
2018-12-24T06:23:36.498Z,101577.92
2018-12-24T06:24:40.106Z,101583.69
2018-12-24T06:25:43.715Z,101587.81
2018-12-24T06:26:47.345Z,101594.74
2018-12-24T06:27:50.929Z,101595.30
2018-12-24T06:28:54.647Z,101598.11
2018-12-24T06:29:58.261Z,101600.34
2018-12-24T06:31:01.932Z,101606.17
2018-12-24T06:32:05.565Z,101608.16
2018-12-24T06:33:09.158Z,101613.96
2018-12-24T06:34:12.789Z,101614.27
2018-12-24T06:35:16.415Z,101623.08
2018-12-24T06:36:20.087Z,101623.94
2018-12-24T06:37:23.696Z,101629.19
2018-12-24T06:38:27.321Z,101632.45
2018-12-24T06:39:31.031Z,101632.97
2018-12-24T06:40:34.641Z,101635.42
2018-12-24T06:41:38.375Z,101632.83
2018-12-24T06:42:41.991Z,101642.73
2018-12-24T06:43:45.653Z,101653.72
2018-12-24T06:44:49.333Z,101650.42
2018-12-24T06:45:52.992Z,101649.66
2018-12-24T06:46:56.585Z,101647.77
2018-12-24T06:48:00.317Z,101650.52
2018-12-24T06:49:03.933Z,101648.92
2018-12-24T06:50:07.704Z,101656.11
2018-12-24T06:51:11.384Z,101651.47
2018-12-24T06:52:14.977Z,101658.09
2018-12-24T06:53:18.563Z,101657.84
2018-12-24T06:54:22.251Z,101663.39
2018-12-24T06:55:25.876Z,101664.20
2018-12-24T06:56:29.500Z,101664.50
2018-12-24T06:57:33.096Z,101665.28
2018-12-24T06:58:36.682Z,101673.53
2018-12-24T06:59:40.312Z,101674.91
2018-12-24T07:00:43.921Z,101673.78
2018-12-24T07:01:47.522Z,101675.38
2018-12-24T07:02:51.254Z,101672.36
2018-12-24T07:03:54.903Z,101675.63
2018-12-24T07:04:58.588Z,101670.73
2018-12-24T07:06:02.307Z,101677.35
2018-12-24T07:07:05.899Z,101676.49
2018-12-24T07:08:10.534Z,101682.04
2018-12-24T07:09:14.122Z,101676.29
2018-12-24T07:10:17.711Z,101679.05
2018-12-24T07:11:21.346Z,101684.84
2018-12-24T07:12:24.933Z,101688.20
2018-12-24T07:13:28.634Z,101687.94
2018-12-24T07:14:32.246Z,101692.36
2018-12-24T07:15:35.837Z,101693.19
2018-12-24T07:16:39.583Z,101691.86
2018-12-24T07:17:43.157Z,101702.81
2018-12-24T07:18:46.827Z,101694.52
2018-12-24T07:19:50.478Z,101700.02
2018-12-24T07:20:54.200Z,101698.61
2018-12-24T07:21:57.914Z,101703.81
2018-12-24T07:23:01.595Z,101691.13
2018-12-24T07:24:05.185Z,101698.83
2018-12-24T07:25:08.952Z,101694.17
2018-12-24T07:26:12.550Z,101701.58
2018-12-24T07:27:16.169Z,101704.07
2018-12-24T07:28:19.918Z,101706.30
2018-12-24T07:29:23.493Z,101706.05
2018-12-24T07:30:27.197Z,101710.21
2018-12-24T07:31:30.797Z,101714.08
2018-12-24T07:32:34.414Z,101711.33
2018-12-24T07:33:38.031Z,101719.59
2018-12-24T07:34:41.641Z,101722.64
2018-12-24T07:35:45.230Z,101718.00
2018-12-24T07:36:48.822Z,101718.27
2018-12-24T07:37:52.649Z,101722.38
2018-12-24T07:38:56.253Z,101714.69
2018-12-24T07:39:59.862Z,101723.76
2018-12-24T07:41:03.540Z,101724.53
2018-12-24T07:42:07.509Z,101729.77
2018-12-24T07:43:11.157Z,101728.66
2018-12-24T07:44:14.752Z,101728.92
2018-12-24T07:45:18.467Z,101736.66
2018-12-24T07:46:22.067Z,101742.72
2018-12-24T07:47:25.693Z,101736.10
2018-12-24T07:48:29.390Z,101728.45
2018-12-24T07:49:32.997Z,101735.33
2018-12-24T07:50:36.604Z,101741.95
2018-12-24T07:51:40.195Z,101735.63
2018-12-24T07:52:43.806Z,101743.92
2018-12-24T07:53:47.422Z,101741.73
2018-12-24T07:56:44.016Z,101743.11
2018-12-24T07:57:47.681Z,101748.02
2018-12-24T07:58:51.288Z,101751.58
2018-12-24T07:59:54.992Z,101757.34
2018-12-24T08:00:58.587Z,101750.72
2018-12-24T08:02:02.325Z,101753.21
2018-12-24T08:03:05.992Z,101760.09
2018-12-24T08:04:09.590Z,101759.54
2018-12-24T08:05:13.232Z,101766.41
2018-12-24T08:06:16.912Z,101763.95
2018-12-24T08:07:20.529Z,101764.26
2018-12-24T08:08:24.165Z,101766.72
2018-12-24T08:09:27.785Z,101763.70
2018-12-24T08:10:33.047Z,101767.61
2018-12-24T08:11:36.720Z,101763.77
2018-12-24T08:12:40.363Z,101768.50
2018-12-24T08:13:43.957Z,101766.86
2018-12-24T08:14:47.568Z,101771.28
2018-12-24T08:15:51.211Z,101770.73
2018-12-24T08:16:54.928Z,101781.66
2018-12-24T08:17:58.517Z,101776.45
2018-12-24T08:19:02.114Z,101770.95
2018-12-24T08:20:06.382Z,101775.86
2018-12-24T08:21:10.087Z,101775.86
2018-12-24T08:22:13.708Z,101779.43
2018-12-24T08:23:17.434Z,101780.51
2018-12-24T08:24:21.045Z,101787.64
2018-12-24T08:25:24.770Z,101789.87
2018-12-24T08:26:28.394Z,101793.22
2018-12-24T08:27:32.041Z,101797.09
2018-12-24T08:28:35.714Z,101798.20
2018-12-24T08:29:39.356Z,101799.05
2018-12-24T08:30:43.146Z,101800.98
2018-12-24T08:31:46.753Z,101803.78
2018-12-24T08:32:50.489Z,101807.64
2018-12-24T08:33:54.104Z,101812.84
2018-12-24T08:34:57.689Z,101809.02
2018-12-24T08:36:01.365Z,101814.22
2018-12-24T08:37:05.068Z,101814.48
2018-12-24T08:38:08.679Z,101821.89
2018-12-24T08:39:12.268Z,101824.59
2018-12-24T08:40:15.863Z,101823.22
2018-12-24T08:41:19.472Z,101830.36
2018-12-24T08:42:23.248Z,101837.77
2018-12-24T08:43:26.877Z,101838.06
2018-12-24T08:44:30.488Z,101843.04
2018-12-24T08:45:34.090Z,101842.81
2018-12-24T08:46:37.691Z,101851.33
2018-12-24T08:47:41.324Z,101849.72
2018-12-24T08:48:44.941Z,101859.61
2018-12-24T08:49:48.524Z,101861.28
2018-12-24T08:50:52.138Z,101858.86
2018-12-24T08:51:55.763Z,101867.92
2018-12-24T08:52:59.414Z,101868.48
2018-12-24T08:54:03.019Z,101869.04
2018-12-24T08:55:06.767Z,101873.16
2018-12-24T08:56:10.358Z,101875.88
2018-12-24T08:57:14.033Z,101882.44
2018-12-24T08:58:17.649Z,101890.95
2018-12-24T08:59:21.261Z,101884.86
2018-12-24T09:00:24.857Z,101893.94
2018-12-24T09:01:28.454Z,101897.80
2018-12-24T09:02:32.047Z,101896.16
2018-12-24T09:03:35.670Z,101901.66
2018-12-24T09:04:39.343Z,101898.91
2018-12-24T09:05:42.960Z,101904.16
2018-12-24T09:06:46.569Z,101904.44
2018-12-24T09:07:50.195Z,101903.09
2018-12-24T09:08:53.818Z,101906.96
2018-12-24T09:09:57.426Z,101903.42
2018-12-24T09:11:01.039Z,101905.35
2018-12-24T09:12:04.715Z,101913.08
2018-12-24T09:13:08.308Z,101912.25
2018-12-24T09:14:11.947Z,101915.53
2018-12-24T09:15:15.562Z,101920.19
2018-12-24T09:16:19.161Z,101923.47
2018-12-24T09:17:22.844Z,101925.92
2018-12-24T09:18:26.440Z,101935.52
2018-12-24T09:19:30.209Z,101932.51
2018-12-24T09:20:33.805Z,101943.52
2018-12-24T09:21:37.407Z,101941.61
2018-12-24T09:22:41.083Z,101949.86
2018-12-24T09:23:44.681Z,101960.87
2018-12-24T09:24:48.408Z,101960.34
2018-12-24T09:25:51.974Z,101961.45
2018-12-24T09:26:55.653Z,101961.19
2018-12-24T09:27:59.344Z,101966.71
2018-12-24T09:29:02.938Z,101969.46
2018-12-24T09:30:09.667Z,101967.56
2018-12-24T09:31:13.438Z,101974.16
2018-12-24T09:32:17.024Z,101977.49
2018-12-24T09:33:20.693Z,101985.48
2018-12-24T09:34:24.348Z,101976.44
2018-12-24T09:35:28.037Z,101984.16
2018-12-24T09:36:31.709Z,101984.17
2018-12-24T09:37:35.401Z,101990.48
2018-12-24T09:38:39.029Z,101989.14
2018-12-24T09:39:42.710Z,101997.38
2018-12-24T09:40:46.463Z,102004.28
2018-12-24T09:41:50.202Z,102007.85
2018-12-24T09:42:53.854Z,102006.21
2018-12-24T09:43:57.493Z,102003.46
2018-12-24T09:45:01.084Z,102012.24
2018-12-24T09:46:04.723Z,102014.17
2018-12-24T09:47:08.356Z,102019.38
2018-12-24T09:48:11.951Z,102016.90
2018-12-24T09:49:15.560Z,102018.27
2018-12-24T09:50:19.227Z,102021.29
2018-12-24T09:51:22.832Z,102022.95
2018-12-24T09:52:26.512Z,102024.06
2018-12-24T09:53:30.212Z,102027.63
2018-12-24T09:54:33.796Z,102034.23
2018-12-24T09:55:37.490Z,102034.53
2018-12-24T09:56:41.189Z,102031.80
2018-12-24T09:57:44.843Z,102029.89
2018-12-24T09:58:48.542Z,102038.41
2018-12-24T09:59:52.128Z,102032.35
2018-12-24T10:00:55.729Z,102037.83
2018-12-24T10:01:59.385Z,102037.25
2018-12-24T10:03:04.622Z,102038.34
2018-12-24T10:04:11.191Z,102033.12
2018-12-24T10:05:15.881Z,102035.56
2018-12-24T10:06:19.587Z,102031.39
2018-12-24T10:07:25.106Z,102032.77
2018-12-24T10:08:28.689Z,102040.70
2018-12-24T10:09:32.356Z,102039.63
2018-12-24T10:10:35.960Z,102046.45
2018-12-24T10:11:39.537Z,102045.34
2018-12-24T10:12:43.191Z,102050.84
2018-12-24T10:13:46.880Z,102044.52
2018-12-24T10:14:50.535Z,102044.28
2018-12-24T10:15:54.235Z,102046.48
2018-12-24T10:16:57.795Z,102046.77
2018-12-24T10:18:01.455Z,102045.95
2018-12-24T10:19:05.125Z,102045.65
2018-12-24T10:20:08.850Z,102055.83
2018-12-24T10:21:12.468Z,102053.92
2018-12-24T10:22:16.096Z,102055.83
2018-12-24T10:23:19.706Z,102051.70
2018-12-24T10:24:23.402Z,102060.79
2018-12-24T10:25:27.002Z,102061.88
2018-12-24T10:26:30.642Z,102072.32
2018-12-24T10:27:34.260Z,102059.08
2018-12-24T10:28:37.868Z,102070.08
2018-12-24T10:29:41.850Z,102078.59
2018-12-24T10:30:45.466Z,102073.94
2018-12-24T10:31:49.056Z,102072.56
2018-12-24T10:32:52.665Z,102070.92
2018-12-24T10:33:56.281Z,102065.98
2018-12-24T10:34:59.857Z,102067.91
2018-12-24T10:36:03.475Z,102072.32
2018-12-24T10:37:07.068Z,102070.68
2018-12-24T10:38:10.679Z,102061.89
2018-12-24T10:39:14.323Z,102072.34
2018-12-24T10:40:17.933Z,102067.93
2018-12-24T10:41:21.525Z,102069.04
2018-12-24T10:42:25.131Z,102069.30
2018-12-24T10:43:28.876Z,102075.62
2018-12-24T10:44:32.546Z,102069.55
2018-12-24T10:45:36.214Z,102071.17
2018-12-24T10:46:39.897Z,102070.06
2018-12-24T10:47:43.647Z,102073.08
2018-12-24T10:48:47.259Z,102070.06
2018-12-24T10:49:50.882Z,102067.30
2018-12-24T10:50:54.489Z,102069.50
2018-12-24T10:51:58.082Z,102073.08
2018-12-24T10:53:01.771Z,102070.86
2018-12-24T10:54:05.353Z,102072.53
2018-12-24T10:55:09.068Z,102076.65
2018-12-24T10:56:12.681Z,102075.27
2018-12-24T10:57:16.296Z,102076.94
2018-12-24T10:58:19.872Z,102073.39
2018-12-24T10:59:23.491Z,102070.92
2018-12-24T11:00:27.146Z,102071.48
2018-12-24T11:01:30.938Z,102073.96
2018-12-24T11:02:34.546Z,102072.85
2018-12-24T11:03:38.148Z,102077.25
2018-12-24T11:04:41.729Z,102079.16
2018-12-24T11:05:45.420Z,102082.44
2018-12-24T11:06:49.005Z,102078.86
2018-12-24T11:07:52.755Z,102076.94
2018-12-24T11:08:56.372Z,102077.75
2018-12-24T11:09:59.970Z,102071.44
2018-12-24T11:11:03.606Z,102071.44
2018-12-24T11:12:07.527Z,102072.55
2018-12-24T11:13:11.112Z,102075.58
2018-12-24T11:14:14.748Z,102072.02
2018-12-24T11:15:25.053Z,102070.11
2018-12-24T11:16:23.798Z,102071.48
2018-12-24T11:17:27.418Z,102069.02
2018-12-24T11:18:31.029Z,102073.41
2018-12-24T11:19:34.729Z,102070.39
2018-12-24T11:20:38.313Z,102081.13
2018-12-24T11:21:41.994Z,102070.95
2018-12-24T11:22:45.615Z,102072.05
2018-12-24T11:23:49.226Z,102076.16
2018-12-24T11:24:52.892Z,102080.27
2018-12-24T11:25:56.515Z,102068.70
2018-12-24T11:27:00.131Z,102076.11
2018-12-24T11:28:03.828Z,102076.11
2018-12-24T11:29:07.421Z,102073.09
2018-12-24T11:30:11.111Z,102073.92
2018-12-24T11:31:14.785Z,102080.53
2018-12-24T11:32:18.473Z,102079.70
2018-12-24T11:33:22.189Z,102081.64
2018-12-24T11:34:25.873Z,102076.98
2018-12-24T11:35:29.472Z,102079.73
2018-12-24T11:36:33.339Z,102075.91
2018-12-24T11:37:37.059Z,102082.23
2018-12-24T11:38:40.653Z,102078.95
2018-12-24T11:39:44.355Z,102086.65
2018-12-24T11:40:47.939Z,102086.92
2018-12-24T11:41:51.554Z,102085.25
2018-12-24T11:42:55.194Z,102084.97
2018-12-24T11:43:58.807Z,102097.06
2018-12-24T11:45:02.509Z,102093.48
2018-12-24T11:46:06.132Z,102097.87
2018-12-24T11:47:09.712Z,102101.19
2018-12-24T11:48:13.384Z,102098.98
2018-12-24T11:49:16.991Z,102103.11
2018-12-24T11:50:20.683Z,102091.84
2018-12-24T11:51:24.289Z,102086.34
2018-12-24T11:52:27.963Z,102090.20
2018-12-24T11:53:31.602Z,102092.42
2018-12-24T11:54:35.329Z,102096.81
2018-12-24T11:55:38.977Z,102096.83
2018-12-24T11:56:42.609Z,102105.64
2018-12-24T11:57:47.442Z,102103.43
2018-12-24T11:58:51.229Z,102099.30
2018-12-24T11:59:54.839Z,102097.93
2018-12-24T12:00:58.432Z,102102.05
2018-12-24T12:02:09.765Z,102097.91
2018-12-24T12:03:07.427Z,102101.78
2018-12-24T12:04:11.057Z,102096.53
2018-12-24T12:05:14.744Z,102100.41
2018-12-24T12:06:19.829Z,102097.09
2018-12-24T12:07:23.835Z,102106.17
2018-12-24T12:08:27.432Z,102095.17